createdAt,value
2023-03-06T00:00:23.399Z,67.99
2023-03-06T00:01:01.271Z,67.91
2023-03-06T00:01:33.101Z,68.74
2023-03-06T00:02:04.908Z,68.01
2023-03-06T00:02:36.658Z,68.18
2023-03-06T00:03:08.607Z,68.86
2023-03-06T00:03:40.368Z,68.85
2023-03-06T00:04:13.077Z,69.18
2023-03-06T00:04:44.790Z,69.13
2023-03-06T00:05:17.249Z,69.01
2023-03-06T00:05:49.316Z,68.32
2023-03-06T00:06:21.654Z,69.01
2023-03-06T00:06:54.261Z,68.75
2023-03-06T00:07:25.996Z,68.90
2023-03-06T00:07:57.831Z,69.41
2023-03-06T00:08:30.186Z,68.95
2023-03-06T00:09:01.970Z,68.72
2023-03-06T00:09:33.702Z,69.11
2023-03-06T00:10:05.763Z,69.04
2023-03-06T00:10:38.589Z,68.99
2023-03-06T00:11:14.833Z,68.63
2023-03-06T00:11:46.556Z,68.34
2023-03-06T00:12:18.330Z,68.69
2023-03-06T00:12:58.365Z,69.04
2023-03-06T00:13:31.264Z,68.92
2023-03-06T00:14:03.135Z,68.79
2023-03-06T00:14:34.878Z,68.92
2023-03-06T00:15:07.468Z,70.40
2023-03-06T00:15:39.493Z,69.49
2023-03-06T00:16:11.792Z,68.91
2023-03-06T00:16:43.564Z,68.99
2023-03-06T00:17:15.293Z,69.29
2023-03-06T00:17:47.457Z,70.10
2023-03-06T00:18:19.487Z,69.96
2023-03-06T00:18:52.205Z,69.43
2023-03-06T00:19:24.530Z,68.50
2023-03-06T00:19:56.364Z,68.93
2023-03-06T00:20:28.162Z,69.57
2023-03-06T00:21:00.293Z,70.27
2023-03-06T00:21:32.079Z,69.89
2023-03-06T00:22:03.942Z,70.32
2023-03-06T00:22:35.672Z,69.78
2023-03-06T00:23:08.404Z,70.03
2023-03-06T00:23:41.428Z,70.38
2023-03-06T00:24:13.379Z,70.44
2023-03-06T00:24:45.180Z,69.91
2023-03-06T00:25:20.322Z,69.97
2023-03-06T00:25:52.141Z,70.00
2023-03-06T00:26:23.954Z,69.19
2023-03-06T00:26:55.754Z,69.95
2023-03-06T00:27:27.595Z,69.53
2023-03-06T00:27:59.302Z,69.88
2023-03-06T00:28:31.640Z,70.05
2023-03-06T00:29:03.732Z,69.92
2023-03-06T00:29:35.664Z,69.72
2023-03-06T00:30:15.568Z,69.84
2023-03-06T00:30:47.586Z,70.15
2023-03-06T00:31:19.404Z,70.00
2023-03-06T00:31:51.220Z,69.35
2023-03-06T00:32:24.038Z,70.08
2023-03-06T00:32:56.572Z,69.69
2023-03-06T00:33:28.345Z,70.00
2023-03-06T00:34:00.346Z,70.22
2023-03-06T00:34:32.193Z,69.77
2023-03-06T00:35:04.276Z,70.43
2023-03-06T00:35:39.168Z,70.69
2023-03-06T00:36:11.046Z,70.83
2023-03-06T00:36:42.903Z,70.75
2023-03-06T00:37:14.662Z,69.78
2023-03-06T00:37:46.448Z,69.89
2023-03-06T00:38:18.198Z,71.03
2023-03-06T00:38:49.944Z,70.12
2023-03-06T00:39:22.601Z,70.40
2023-03-06T00:39:54.379Z,70.50
2023-03-06T00:40:26.822Z,70.65
2023-03-06T00:40:58.647Z,69.90
2023-03-06T00:41:30.442Z,71.21
2023-03-06T00:42:02.204Z,71.35
2023-03-06T00:42:34.005Z,71.11
2023-03-06T00:43:05.931Z,71.14
2023-03-06T00:43:38.077Z,70.62
2023-03-06T00:44:09.836Z,70.75
2023-03-06T00:44:41.757Z,71.14
2023-03-06T00:45:14.656Z,70.98
2023-03-06T00:45:46.443Z,70.84
2023-03-06T00:46:18.363Z,70.64
2023-03-06T00:46:50.174Z,71.02
2023-03-06T00:47:21.962Z,70.80
2023-03-06T00:47:53.763Z,70.17
2023-03-06T00:48:25.515Z,70.65
2023-03-06T00:48:57.268Z,70.69
2023-03-06T00:49:29.039Z,70.21
2023-03-06T00:50:01.073Z,70.40
2023-03-06T00:50:32.899Z,71.11
2023-03-06T00:51:04.925Z,70.47
2023-03-06T00:51:36.640Z,70.24
2023-03-06T00:52:08.416Z,70.22
2023-03-06T00:52:42.123Z,70.30
2023-03-06T00:53:13.895Z,70.36
2023-03-06T00:53:45.634Z,70.48
2023-03-06T00:54:17.416Z,70.29
2023-03-06T00:54:49.365Z,69.61
2023-03-06T00:55:21.289Z,70.44
2023-03-06T00:55:53.073Z,70.38
2023-03-06T00:56:25.315Z,69.73
2023-03-06T00:56:57.026Z,70.61
2023-03-06T00:57:28.851Z,71.24
2023-03-06T00:58:00.647Z,70.67
2023-03-06T00:58:32.409Z,70.40
2023-03-06T00:59:04.145Z,70.27
2023-03-06T00:59:36.462Z,71.23
2023-03-06T01:00:09.627Z,71.72
2023-03-06T01:00:41.405Z,71.15
2023-03-06T01:01:14.074Z,71.90
2023-03-06T01:01:45.863Z,71.88
2023-03-06T01:02:17.705Z,72.27
2023-03-06T01:02:49.619Z,71.80
2023-03-06T01:03:21.420Z,71.40
2023-03-06T01:03:53.178Z,72.01
2023-03-06T01:04:25.328Z,72.34
2023-03-06T01:04:57.597Z,72.28
2023-03-06T01:05:35.819Z,72.54
2023-03-06T01:06:07.789Z,72.44
2023-03-06T01:06:39.555Z,71.39
2023-03-06T01:07:11.386Z,71.28
2023-03-06T01:07:43.156Z,71.45
2023-03-06T01:08:14.911Z,71.77
2023-03-06T01:08:46.653Z,71.50
2023-03-06T01:09:18.448Z,71.79
2023-03-06T01:09:50.475Z,71.25
2023-03-06T01:10:22.372Z,72.00
2023-03-06T01:10:54.206Z,71.66
2023-03-06T01:11:26.215Z,71.89
2023-03-06T01:11:57.988Z,71.67
2023-03-06T01:12:29.896Z,71.42
2023-03-06T01:13:01.626Z,71.81
2023-03-06T01:13:33.375Z,72.33
2023-03-06T01:14:05.585Z,71.13
2023-03-06T01:14:37.296Z,72.28
2023-03-06T01:15:10.882Z,72.14
2023-03-06T01:15:42.790Z,71.74
2023-03-06T01:16:19.118Z,71.74
2023-03-06T01:16:50.942Z,71.59
2023-03-06T01:17:22.675Z,71.66
2023-03-06T01:17:55.267Z,72.20
2023-03-06T01:18:27.037Z,72.31
2023-03-06T01:18:59.263Z,71.72
2023-03-06T01:19:31.243Z,72.11
2023-03-06T01:20:03.161Z,72.74
2023-03-06T01:20:34.975Z,71.62
2023-03-06T01:21:07.342Z,71.65
2023-03-06T01:21:39.200Z,72.02
2023-03-06T01:22:10.966Z,72.94
2023-03-06T01:22:43.168Z,72.68
2023-03-06T01:23:14.994Z,72.27
2023-03-06T01:23:47.506Z,72.24
2023-03-06T01:24:19.255Z,72.19
2023-03-06T01:24:50.994Z,73.23
2023-03-06T01:25:24.371Z,72.56
2023-03-06T01:25:56.297Z,73.21
2023-03-06T01:26:28.096Z,72.27
2023-03-06T01:26:59.910Z,72.65
2023-03-06T01:27:31.657Z,73.30
2023-03-06T01:28:03.599Z,73.07
2023-03-06T01:28:37.543Z,73.34
2023-03-06T01:29:09.374Z,72.50
2023-03-06T01:29:41.124Z,72.68
2023-03-06T01:30:13.197Z,73.76
2023-03-06T01:30:44.936Z,73.02
2023-03-06T01:31:16.850Z,73.08
2023-03-06T01:31:48.802Z,73.03
2023-03-06T01:32:21.609Z,73.67
2023-03-06T01:32:53.452Z,72.96
2023-03-06T01:33:25.198Z,73.45
2023-03-06T01:33:56.971Z,73.66
2023-03-06T01:34:28.800Z,72.81
2023-03-06T01:35:00.573Z,73.72
2023-03-06T01:35:32.352Z,72.99
2023-03-06T01:36:06.612Z,73.38
2023-03-06T01:36:38.427Z,73.33
2023-03-06T01:37:10.297Z,73.78
2023-03-06T01:37:42.507Z,72.96
2023-03-06T01:38:14.627Z,73.39
2023-03-06T01:38:46.470Z,74.23
2023-03-06T01:39:18.279Z,74.25
2023-03-06T01:39:50.354Z,73.92
2023-03-06T01:40:22.274Z,73.93
2023-03-06T01:40:54.074Z,73.52
2023-03-06T01:41:25.920Z,74.41
2023-03-06T01:41:57.811Z,73.93
2023-03-06T01:42:31.941Z,74.86
2023-03-06T01:43:28.564Z,74.14
2023-03-06T01:44:00.388Z,74.20
2023-03-06T01:44:32.594Z,74.07
2023-03-06T01:45:27.219Z,74.69
2023-03-06T01:46:25.717Z,74.56
2023-03-06T01:46:57.542Z,74.82
2023-03-06T01:47:29.400Z,74.18
2023-03-06T01:48:01.176Z,74.42
2023-03-06T01:48:32.988Z,73.88
2023-03-06T01:49:16.645Z,74.86
2023-03-06T01:49:48.859Z,74.44
2023-03-06T01:50:20.838Z,74.10
2023-03-06T01:50:54.284Z,74.92
2023-03-06T01:51:35.725Z,74.51
2023-03-06T01:52:12.082Z,74.78
2023-03-06T01:52:56.261Z,74.27
2023-03-06T01:53:28.559Z,74.66
2023-03-06T01:54:05.349Z,74.57
2023-03-06T01:54:42.344Z,73.92
2023-03-06T01:55:28.126Z,74.60
2023-03-06T01:55:59.899Z,73.79
2023-03-06T01:56:32.176Z,74.41
2023-03-06T01:57:13.589Z,74.41
2023-03-06T01:57:51.287Z,74.61
2023-03-06T01:58:23.162Z,73.66
2023-03-06T01:58:55.122Z,73.29
2023-03-06T01:59:29.411Z,73.85
2023-03-06T02:00:12.604Z,73.58
2023-03-06T02:00:44.591Z,73.56
2023-03-06T02:01:18.963Z,73.97
2023-03-06T02:01:51.544Z,73.24
2023-03-06T02:02:23.442Z,73.38
2023-03-06T02:03:04.527Z,74.37
2023-03-06T02:03:36.603Z,73.25
2023-03-06T02:04:09.740Z,73.62
2023-03-06T02:04:42.643Z,73.35
2023-03-06T02:05:14.588Z,73.95
2023-03-06T02:05:46.665Z,73.85
2023-03-06T02:06:21.791Z,74.02
2023-03-06T02:06:54.174Z,73.62
2023-03-06T02:07:26.320Z,73.42
2023-03-06T02:07:58.421Z,73.09
2023-03-06T02:08:31.609Z,73.43
2023-03-06T02:09:05.763Z,73.43
2023-03-06T02:09:38.916Z,73.18
2023-03-06T02:10:12.267Z,73.75
2023-03-06T02:10:56.797Z,73.58
2023-03-06T02:11:28.597Z,72.98
2023-03-06T02:12:07.880Z,72.95
2023-03-06T02:12:43.805Z,72.53
2023-03-06T02:13:15.597Z,73.13
2023-03-06T02:13:49.214Z,72.74
2023-03-06T02:14:21.378Z,73.11
2023-03-06T02:14:53.863Z,72.70
2023-03-06T02:15:29.191Z,73.32
2023-03-06T02:16:02.257Z,73.58
2023-03-06T02:16:34.292Z,72.89
2023-03-06T02:17:09.038Z,73.34
2023-03-06T02:17:43.867Z,72.72
2023-03-06T02:18:15.779Z,72.86
2023-03-06T02:18:49.490Z,72.69
2023-03-06T02:19:58.144Z,72.21
2023-03-06T02:20:39.656Z,72.56
2023-03-06T02:21:21.735Z,72.94
2023-03-06T02:21:53.489Z,72.59
2023-03-06T02:22:36.323Z,72.34
2023-03-06T02:23:25.272Z,72.20
2023-03-06T02:24:18.766Z,71.96
2023-03-06T02:25:03.438Z,72.64
2023-03-06T02:25:38.348Z,73.09
2023-03-06T02:26:12.178Z,73.13
2023-03-06T02:26:45.362Z,72.89
2023-03-06T02:27:19.032Z,73.06
2023-03-06T02:27:50.839Z,72.79
2023-03-06T02:28:24.825Z,73.13
2023-03-06T02:28:58.549Z,71.82
2023-03-06T02:29:30.610Z,72.94
2023-03-06T02:30:07.820Z,71.97
2023-03-06T02:30:41.449Z,71.82
2023-03-06T02:31:25.139Z,72.65
2023-03-06T02:31:57.586Z,72.34
2023-03-06T02:32:29.343Z,72.67
2023-03-06T02:33:01.604Z,72.81
2023-03-06T02:33:33.533Z,72.26
2023-03-06T02:34:27.138Z,72.11
2023-03-06T02:34:59.090Z,72.57
2023-03-06T02:35:34.759Z,72.80
2023-03-06T02:36:12.920Z,72.97
2023-03-06T02:36:51.880Z,73.02
2023-03-06T02:37:26.179Z,73.06
2023-03-06T02:38:02.746Z,72.51
2023-03-06T02:38:44.644Z,72.84
2023-03-06T02:39:21.804Z,72.47
2023-03-06T02:40:02.960Z,72.81
2023-03-06T02:40:35.449Z,73.07
2023-03-06T02:41:08.635Z,72.66
2023-03-06T02:41:41.007Z,73.19
2023-03-06T02:42:19.594Z,73.30
2023-03-06T02:42:58.143Z,73.10
2023-03-06T02:43:34.915Z,71.94
2023-03-06T02:44:06.661Z,72.30
2023-03-06T02:44:38.652Z,72.89
2023-03-06T02:45:13.478Z,71.85
2023-03-06T02:45:49.304Z,71.98
2023-03-06T02:46:21.134Z,71.93
2023-03-06T02:46:52.899Z,72.83
2023-03-06T02:47:25.550Z,72.36
2023-03-06T02:47:57.306Z,71.72
2023-03-06T02:48:29.146Z,72.48
2023-03-06T02:49:00.924Z,71.71
2023-03-06T02:49:32.703Z,72.20
2023-03-06T02:50:04.710Z,71.84
2023-03-06T02:50:36.511Z,71.03
2023-03-06T02:51:08.347Z,71.35
2023-03-06T02:51:40.080Z,72.00
2023-03-06T02:52:12.029Z,71.56
2023-03-06T02:52:43.796Z,71.79
2023-03-06T02:53:18.373Z,71.38
2023-03-06T02:53:50.388Z,71.84
2023-03-06T02:54:22.394Z,71.53
2023-03-06T02:54:54.188Z,70.92
2023-03-06T02:55:26.015Z,71.78
2023-03-06T02:55:57.904Z,71.15
2023-03-06T02:56:29.720Z,71.22
2023-03-06T02:57:01.460Z,71.00
2023-03-06T02:57:33.265Z,70.81
2023-03-06T02:58:05.590Z,71.49
2023-03-06T02:58:37.473Z,70.96
2023-03-06T02:59:09.235Z,71.61
2023-03-06T02:59:41.068Z,71.63
2023-03-06T03:00:13.264Z,71.02
2023-03-06T03:00:45.110Z,71.60
2023-03-06T03:01:16.876Z,71.20
2023-03-06T03:01:48.770Z,70.82
2023-03-06T03:02:20.665Z,71.48
2023-03-06T03:02:53.128Z,71.84
2023-03-06T03:03:24.844Z,70.62
2023-03-06T03:03:56.595Z,70.94
2023-03-06T03:04:28.394Z,70.89
2023-03-06T03:05:00.193Z,71.55
2023-03-06T03:05:32.504Z,70.87
2023-03-06T03:06:06.031Z,71.18
2023-03-06T03:06:37.844Z,71.05
2023-03-06T03:07:09.627Z,71.08
2023-03-06T03:07:41.438Z,71.03
2023-03-06T03:08:13.492Z,71.65
2023-03-06T03:08:45.233Z,71.88
2023-03-06T03:09:17.154Z,71.67
2023-03-06T03:09:48.927Z,71.80
2023-03-06T03:10:21.020Z,71.77
2023-03-06T03:10:52.834Z,71.14
2023-03-06T03:11:24.598Z,71.80
2023-03-06T03:11:56.341Z,71.13
2023-03-06T03:12:28.829Z,70.95
2023-03-06T03:13:00.826Z,71.73
2023-03-06T03:13:32.967Z,72.01
2023-03-06T03:14:04.854Z,71.16
2023-03-06T03:14:36.701Z,71.83
2023-03-06T03:15:09.749Z,71.14
2023-03-06T03:15:41.672Z,71.69
2023-03-06T03:16:15.631Z,70.77
2023-03-06T03:16:47.855Z,71.01
2023-03-06T03:17:19.619Z,70.58
2023-03-06T03:17:51.603Z,71.21
2023-03-06T03:18:23.435Z,71.40
2023-03-06T03:18:55.237Z,71.00
2023-03-06T03:19:26.974Z,71.47
2023-03-06T03:19:58.777Z,71.41
2023-03-06T03:20:30.525Z,71.32
2023-03-06T03:21:03.129Z,71.13
2023-03-06T03:21:34.879Z,71.36
2023-03-06T03:22:07.303Z,71.68
2023-03-06T03:22:39.364Z,71.58
2023-03-06T03:23:11.162Z,71.42
2023-03-06T03:23:43.217Z,71.21
2023-03-06T03:24:16.766Z,71.93
2023-03-06T03:24:48.662Z,71.05
2023-03-06T03:25:23.950Z,71.25
2023-03-06T03:25:55.752Z,70.93
2023-03-06T03:26:27.650Z,71.45
2023-03-06T03:26:59.530Z,71.26
2023-03-06T03:27:31.324Z,71.39
2023-03-06T03:28:03.175Z,71.07
2023-03-06T03:28:35.338Z,71.63
2023-03-06T03:29:07.189Z,71.60
2023-03-06T03:29:40.168Z,71.13
2023-03-06T03:30:12.636Z,71.74
2023-03-06T03:30:45.826Z,71.85
2023-03-06T03:31:17.845Z,70.93
2023-03-06T03:31:49.706Z,71.10
2023-03-06T03:32:21.479Z,71.58
2023-03-06T03:32:53.281Z,70.90
2023-03-06T03:33:25.087Z,70.59
2023-03-06T03:33:56.885Z,70.84
2023-03-06T03:34:28.663Z,71.04
2023-03-06T03:35:00.405Z,71.25
2023-03-06T03:35:32.324Z,71.03
2023-03-06T03:36:06.821Z,71.87
2023-03-06T03:36:38.736Z,70.96
2023-03-06T03:37:10.879Z,72.06
2023-03-06T03:37:42.680Z,70.99
2023-03-06T03:38:14.469Z,71.56
2023-03-06T03:38:46.280Z,71.83
2023-03-06T03:39:18.185Z,71.93
2023-03-06T03:39:50.007Z,72.05
2023-03-06T03:40:21.707Z,71.89
2023-03-06T03:40:53.566Z,71.56
2023-03-06T03:41:25.399Z,71.13
2023-03-06T03:41:57.238Z,71.34
2023-03-06T03:42:29.037Z,71.27
2023-03-06T03:43:00.807Z,70.84
2023-03-06T03:43:32.677Z,70.71
2023-03-06T03:44:04.492Z,71.09
2023-03-06T03:44:36.276Z,70.61
2023-03-06T03:45:08.603Z,70.95
2023-03-06T03:45:40.496Z,71.03
2023-03-06T03:46:12.382Z,71.53
2023-03-06T03:46:44.400Z,70.87
2023-03-06T03:47:16.219Z,71.05
2023-03-06T03:47:48.044Z,70.96
2023-03-06T03:48:20.593Z,71.72
2023-03-06T03:48:52.331Z,71.05
2023-03-06T03:49:24.486Z,71.64
2023-03-06T03:49:56.285Z,72.02
2023-03-06T03:50:28.024Z,71.46
2023-03-06T03:51:09.752Z,71.40
2023-03-06T03:51:41.648Z,70.92
2023-03-06T03:52:13.442Z,71.29
2023-03-06T03:52:45.237Z,70.74
2023-03-06T03:53:17.134Z,71.23
2023-03-06T03:53:49.440Z,71.44
2023-03-06T03:54:21.385Z,71.65
2023-03-06T03:54:53.967Z,70.73
2023-03-06T03:55:26.140Z,70.91
2023-03-06T03:55:57.919Z,71.86
2023-03-06T03:56:29.647Z,72.04
2023-03-06T03:57:01.390Z,71.56
2023-03-06T03:57:33.194Z,71.14
2023-03-06T03:58:05.758Z,70.87
2023-03-06T03:58:37.739Z,71.61
2023-03-06T03:59:09.694Z,71.79
2023-03-06T03:59:41.440Z,71.83
2023-03-06T04:00:16.686Z,71.15
2023-03-06T04:00:48.472Z,71.51
2023-03-06T04:01:20.276Z,71.14
2023-03-06T04:01:52.619Z,71.60
2023-03-06T04:02:25.619Z,71.11
2023-03-06T04:02:57.515Z,71.19
2023-03-06T04:03:29.396Z,71.76
2023-03-06T04:04:01.221Z,71.65
2023-03-06T04:04:33.111Z,71.72
2023-03-06T04:05:05.289Z,71.38
2023-03-06T04:05:37.142Z,71.54
2023-03-06T04:06:09.109Z,71.36
2023-03-06T04:06:40.955Z,71.49
2023-03-06T04:07:12.865Z,72.45
2023-03-06T04:07:44.950Z,72.51
2023-03-06T04:08:16.699Z,71.98
2023-03-06T04:08:48.446Z,72.70
2023-03-06T04:09:20.220Z,71.88
2023-03-06T04:09:52.015Z,72.26
2023-03-06T04:10:23.754Z,72.04
2023-03-06T04:10:55.541Z,71.49
2023-03-06T04:11:27.393Z,72.07
2023-03-06T04:11:59.100Z,71.49
2023-03-06T04:12:30.985Z,71.95
2023-03-06T04:13:02.837Z,71.24
2023-03-06T04:13:34.686Z,71.38
2023-03-06T04:14:08.361Z,71.80
2023-03-06T04:14:40.109Z,71.59
2023-03-06T04:15:11.931Z,71.69
2023-03-06T04:15:43.862Z,71.35
2023-03-06T04:16:15.812Z,70.82
2023-03-06T04:16:47.660Z,71.43
2023-03-06T04:17:19.481Z,71.32
2023-03-06T04:17:51.548Z,72.06
2023-03-06T04:18:24.129Z,71.80
2023-03-06T04:18:55.907Z,71.59
2023-03-06T04:19:27.815Z,71.63
2023-03-06T04:20:00.706Z,71.30
2023-03-06T04:20:32.522Z,70.93
2023-03-06T04:21:04.476Z,71.63
2023-03-06T04:21:36.358Z,71.26
2023-03-06T04:22:08.117Z,71.60
2023-03-06T04:22:39.969Z,71.01
2023-03-06T04:23:12.280Z,71.61
2023-03-06T04:23:44.068Z,70.79
2023-03-06T04:24:15.877Z,71.01
2023-03-06T04:24:49.993Z,70.43
2023-03-06T04:25:21.776Z,70.27
2023-03-06T04:25:54.169Z,70.33
2023-03-06T04:26:26.047Z,70.65
2023-03-06T04:26:57.829Z,70.35
2023-03-06T04:27:29.542Z,70.75
2023-03-06T04:28:01.366Z,69.94
2023-03-06T04:28:33.300Z,70.71
2023-03-06T04:29:05.376Z,70.27
2023-03-06T04:29:37.151Z,70.37
2023-03-06T04:30:09.617Z,70.70
2023-03-06T04:30:44.479Z,70.82
2023-03-06T04:31:16.301Z,70.81
2023-03-06T04:31:48.168Z,70.29
2023-03-06T04:32:21.544Z,70.86
2023-03-06T04:32:53.503Z,69.98
2023-03-06T04:33:25.305Z,70.95
2023-03-06T04:33:57.294Z,70.69
2023-03-06T04:34:29.065Z,70.77
2023-03-06T04:35:01.109Z,70.51
2023-03-06T04:35:33.063Z,71.12
2023-03-06T04:36:05.513Z,71.08
2023-03-06T04:36:37.353Z,70.39
2023-03-06T04:37:22.841Z,70.55
2023-03-06T04:37:55.015Z,70.26
2023-03-06T04:38:26.859Z,70.55
2023-03-06T04:38:59.216Z,70.55
2023-03-06T04:39:31.127Z,69.99
2023-03-06T04:40:03.040Z,70.57
2023-03-06T04:40:37.559Z,70.43
2023-03-06T04:41:09.452Z,69.87
2023-03-06T04:41:42.609Z,70.55
2023-03-06T04:42:15.300Z,70.57
2023-03-06T04:42:47.384Z,69.87
2023-03-06T04:43:19.238Z,69.79
2023-03-06T04:43:52.150Z,70.24
2023-03-06T04:44:24.015Z,70.31
2023-03-06T04:44:55.754Z,70.16
2023-03-06T04:45:30.227Z,69.42
2023-03-06T04:46:02.104Z,70.06
2023-03-06T04:46:35.092Z,69.96
2023-03-06T04:47:07.251Z,69.46
2023-03-06T04:47:39.360Z,69.83
2023-03-06T04:48:15.739Z,70.02
2023-03-06T04:48:47.780Z,70.54
2023-03-06T04:49:19.584Z,69.75
2023-03-06T04:49:51.389Z,70.56
2023-03-06T04:50:25.056Z,70.43
2023-03-06T04:50:56.800Z,70.90
2023-03-06T04:51:28.586Z,70.29
2023-03-06T04:52:00.374Z,70.45
2023-03-06T04:52:32.164Z,69.85
2023-03-06T04:53:04.866Z,69.89
2023-03-06T04:53:36.607Z,69.36
2023-03-06T04:54:08.465Z,69.46
2023-03-06T04:54:40.221Z,70.26
2023-03-06T04:55:14.660Z,70.34
2023-03-06T04:55:46.425Z,69.87
2023-03-06T04:56:18.674Z,69.67
2023-03-06T04:56:50.546Z,70.08
2023-03-06T04:57:22.411Z,70.33
2023-03-06T04:57:54.293Z,69.30
2023-03-06T04:58:26.505Z,69.67
2023-03-06T04:58:58.608Z,69.59
2023-03-06T04:59:30.507Z,69.51
2023-03-06T05:00:08.581Z,69.87
2023-03-06T05:00:40.530Z,69.68
2023-03-06T05:01:12.796Z,69.12
2023-03-06T05:01:44.647Z,70.11
2023-03-06T05:02:17.855Z,69.54
2023-03-06T05:02:50.781Z,69.17
2023-03-06T05:03:22.698Z,70.02
2023-03-06T05:03:54.532Z,69.00
2023-03-06T05:04:26.310Z,68.49
2023-03-06T05:04:58.081Z,68.67
2023-03-06T05:05:30.605Z,67.97
2023-03-06T05:06:02.669Z,67.66
2023-03-06T05:06:34.550Z,67.24
2023-03-06T05:07:06.410Z,67.75
2023-03-06T05:07:39.098Z,68.01
2023-03-06T05:08:16.082Z,67.39
2023-03-06T05:08:47.875Z,67.92
2023-03-06T05:09:19.614Z,67.51
2023-03-06T05:09:51.466Z,67.94
2023-03-06T05:10:23.442Z,68.07
2023-03-06T05:11:01.703Z,67.81
2023-03-06T05:11:33.492Z,67.94
2023-03-06T05:12:05.421Z,68.51
2023-03-06T05:12:37.906Z,67.84
2023-03-06T05:13:10.380Z,68.19
2023-03-06T05:13:42.953Z,68.24
2023-03-06T05:14:14.830Z,68.14
2023-03-06T05:14:48.020Z,67.19
2023-03-06T05:15:19.996Z,68.13
2023-03-06T05:15:51.860Z,67.57
2023-03-06T05:16:26.112Z,67.81
2023-03-06T05:16:58.177Z,68.38
2023-03-06T05:17:30.048Z,68.34
2023-03-06T05:18:01.797Z,67.51
2023-03-06T05:18:34.485Z,68.09
2023-03-06T05:19:06.264Z,67.98
2023-03-06T05:19:38.076Z,67.62
2023-03-06T05:20:12.051Z,68.22
2023-03-06T05:20:43.877Z,68.03
2023-03-06T05:21:15.653Z,68.50
2023-03-06T05:21:47.412Z,68.17
2023-03-06T05:22:19.264Z,68.63
2023-03-06T05:22:51.518Z,68.72
2023-03-06T05:23:23.352Z,68.68
2023-03-06T05:23:55.180Z,68.71
2023-03-06T05:24:26.991Z,68.80
2023-03-06T05:24:58.882Z,68.11
2023-03-06T05:25:30.728Z,68.69
2023-03-06T05:26:08.285Z,68.14
2023-03-06T05:26:40.045Z,67.79
2023-03-06T05:27:11.902Z,68.17
2023-03-06T05:27:43.869Z,68.47
2023-03-06T05:28:15.603Z,69.04
2023-03-06T05:28:47.342Z,68.77
2023-03-06T05:29:19.213Z,69.24
2023-03-06T05:29:50.998Z,68.66
2023-03-06T05:30:23.401Z,68.53
2023-03-06T05:30:55.100Z,68.61
2023-03-06T05:31:26.864Z,67.82
2023-03-06T05:31:59.028Z,68.45
2023-03-06T05:32:31.784Z,68.64
2023-03-06T05:33:04.276Z,68.32
2023-03-06T05:33:36.851Z,67.87
2023-03-06T05:34:15.489Z,68.29
2023-03-06T05:34:48.081Z,68.78
2023-03-06T05:35:23.001Z,69.11
2023-03-06T05:35:54.800Z,68.95
2023-03-06T05:36:26.678Z,69.48
2023-03-06T05:36:59.205Z,69.15
2023-03-06T05:37:31.223Z,68.48
2023-03-06T05:38:03.345Z,68.59
2023-03-06T05:38:35.071Z,68.30
2023-03-06T05:39:07.041Z,69.02
2023-03-06T05:39:38.822Z,68.12
2023-03-06T05:40:11.694Z,68.14
2023-03-06T05:40:44.871Z,68.42
2023-03-06T05:41:17.189Z,68.02
2023-03-06T05:41:48.971Z,68.37
2023-03-06T05:42:21.073Z,67.92
2023-03-06T05:42:52.878Z,68.08
2023-03-06T05:43:24.626Z,68.71
2023-03-06T05:43:57.024Z,68.49
2023-03-06T05:44:33.305Z,68.57
2023-03-06T05:45:05.742Z,68.24
2023-03-06T05:45:38.762Z,68.04
2023-03-06T05:46:11.333Z,67.88
2023-03-06T05:46:43.170Z,68.46
2023-03-06T05:47:15.172Z,68.52
2023-03-06T05:47:47.250Z,68.13
2023-03-06T05:48:19.089Z,67.67
2023-03-06T05:48:53.229Z,67.89
2023-03-06T05:49:25.370Z,68.48
2023-03-06T05:49:57.106Z,67.68
2023-03-06T05:50:28.892Z,67.80
2023-03-06T05:51:02.483Z,68.02
2023-03-06T05:51:34.242Z,67.27
2023-03-06T05:52:07.506Z,67.78
2023-03-06T05:52:40.238Z,67.57
2023-03-06T05:53:12.023Z,67.98
2023-03-06T05:53:43.874Z,67.78
2023-03-06T05:54:15.699Z,68.03
2023-03-06T05:54:51.114Z,68.34
2023-03-06T05:55:24.493Z,67.13
2023-03-06T05:56:02.305Z,68.04
2023-03-06T05:56:34.044Z,67.89
2023-03-06T05:57:06.047Z,67.64
2023-03-06T05:57:37.811Z,66.86
2023-03-06T05:58:09.553Z,66.90
2023-03-06T05:58:41.364Z,67.85
2023-03-06T05:59:13.513Z,67.20
2023-03-06T05:59:46.387Z,66.92
2023-03-06T06:00:19.887Z,66.76
2023-03-06T06:00:52.296Z,66.50
2023-03-06T06:01:25.507Z,66.56
2023-03-06T06:01:57.978Z,66.70
2023-03-06T06:02:29.975Z,66.95
2023-03-06T06:03:02.419Z,68.09
2023-03-06T06:03:34.296Z,67.92
2023-03-06T06:04:06.144Z,66.82
2023-03-06T06:04:38.057Z,67.65
2023-03-06T06:05:12.899Z,67.08
2023-03-06T06:05:45.034Z,67.23
2023-03-06T06:06:16.903Z,67.33
2023-03-06T06:06:54.282Z,66.60
2023-03-06T06:07:26.062Z,66.79
2023-03-06T06:07:57.870Z,67.41
2023-03-06T06:08:29.646Z,67.28
2023-03-06T06:09:01.431Z,67.64
2023-03-06T06:09:33.174Z,66.43
2023-03-06T06:10:07.051Z,66.48
2023-03-06T06:10:39.907Z,66.94
2023-03-06T06:11:12.954Z,67.54
2023-03-06T06:11:44.902Z,66.59
2023-03-06T06:12:16.690Z,66.65
2023-03-06T06:12:48.490Z,66.31
2023-03-06T06:13:20.263Z,67.02
2023-03-06T06:13:52.025Z,66.48
2023-03-06T06:14:24.646Z,66.11
2023-03-06T06:14:56.535Z,65.77
2023-03-06T06:15:29.028Z,66.59
2023-03-06T06:16:06.027Z,66.57
2023-03-06T06:16:37.841Z,66.85
2023-03-06T06:17:09.649Z,67.28
2023-03-06T06:17:41.630Z,66.58
2023-03-06T06:18:13.392Z,66.61
2023-03-06T06:18:46.709Z,66.75
2023-03-06T06:19:21.333Z,66.95
2023-03-06T06:19:53.986Z,66.36
2023-03-06T06:20:26.135Z,66.13
2023-03-06T06:20:57.876Z,66.32
2023-03-06T06:21:29.594Z,66.09
2023-03-06T06:22:04.101Z,66.14
2023-03-06T06:22:38.025Z,65.85
2023-03-06T06:23:12.723Z,66.28
2023-03-06T06:23:44.596Z,66.49
2023-03-06T06:24:19.334Z,66.33
2023-03-06T06:24:51.212Z,66.49
2023-03-06T06:25:22.957Z,66.52
2023-03-06T06:25:54.761Z,66.26
2023-03-06T06:26:26.542Z,65.84
2023-03-06T06:27:01.930Z,65.96
2023-03-06T06:27:35.171Z,65.31
2023-03-06T06:28:06.955Z,65.39
2023-03-06T06:28:38.757Z,65.65
2023-03-06T06:29:11.824Z,65.80
2023-03-06T06:29:43.544Z,65.28
2023-03-06T06:30:15.397Z,65.35
2023-03-06T06:30:47.188Z,65.56
2023-03-06T06:31:19.027Z,65.44
2023-03-06T06:31:51.554Z,65.26
2023-03-06T06:32:23.387Z,65.45
2023-03-06T06:32:55.591Z,65.57
2023-03-06T06:33:27.520Z,65.83
2023-03-06T06:33:59.416Z,65.78
2023-03-06T06:34:31.988Z,65.70
2023-03-06T06:35:04.402Z,65.05
2023-03-06T06:35:37.416Z,65.30
2023-03-06T06:36:17.103Z,65.49
2023-03-06T06:36:52.210Z,64.65
2023-03-06T06:37:26.068Z,64.88
2023-03-06T06:37:57.851Z,64.48
2023-03-06T06:38:29.937Z,64.63
2023-03-06T06:39:02.037Z,64.58
2023-03-06T06:39:33.940Z,64.73
2023-03-06T06:40:06.323Z,64.49
2023-03-06T06:40:38.058Z,65.03
2023-03-06T06:42:20.155Z,64.49
2023-03-06T06:42:52.588Z,64.31
2023-03-06T06:43:24.344Z,64.13
2023-03-06T06:43:58.680Z,64.13
2023-03-06T06:44:30.703Z,64.19
2023-03-06T06:45:05.283Z,64.12
2023-03-06T06:45:37.189Z,64.01
2023-03-06T06:46:38.873Z,64.31
2023-03-06T06:47:23.471Z,64.30
2023-03-06T06:47:52.605Z,64.04
2023-03-06T06:48:25.016Z,63.78
2023-03-06T06:48:56.832Z,63.88
2023-03-06T06:49:28.586Z,63.28
2023-03-06T06:50:00.325Z,63.03
2023-03-06T06:50:32.141Z,62.94
2023-03-06T06:51:04.604Z,62.83
2023-03-06T06:51:37.508Z,62.86
2023-03-06T06:52:10.579Z,63.01
2023-03-06T06:52:42.364Z,62.90
2023-03-06T06:53:14.091Z,63.12
2023-03-06T06:53:45.938Z,63.26
2023-03-06T06:54:18.864Z,63.06
2023-03-06T06:54:51.106Z,62.80
2023-03-06T06:55:22.867Z,62.76
2023-03-06T06:55:54.825Z,62.88
2023-03-06T06:56:26.883Z,62.87
2023-03-06T06:56:58.810Z,62.45
2023-03-06T06:57:30.603Z,62.21
2023-03-06T06:58:02.356Z,62.72
2023-03-06T06:58:34.228Z,62.72
2023-03-06T06:59:16.157Z,63.15
2023-03-06T06:59:50.644Z,62.92
2023-03-06T07:00:24.430Z,63.22
2023-03-06T07:00:56.234Z,63.56
2023-03-06T07:01:29.387Z,63.72
2023-03-06T07:02:01.423Z,64.08
2023-03-06T07:02:33.381Z,63.75
2023-03-06T07:03:05.144Z,63.13
2023-03-06T07:03:37.489Z,62.39
2023-03-06T07:04:12.528Z,62.27
2023-03-06T07:05:02.054Z,62.32
2023-03-06T07:05:35.128Z,62.42
2023-03-06T07:06:07.270Z,63.01